createdAt,value
2018-07-02T10:45:49.844Z,27.81
2018-07-02T10:46:45.106Z,27.72
2018-07-02T10:47:44.098Z,27.79
2018-07-02T10:48:44.089Z,27.82
2018-07-02T10:49:44.067Z,27.77
2018-07-02T10:50:44.069Z,27.88
2018-07-02T10:51:44.076Z,27.92
2018-07-02T10:52:44.199Z,27.82
2018-07-02T10:53:44.031Z,27.85
2018-07-02T10:54:44.044Z,27.81
2018-07-02T10:55:44.097Z,27.92
2018-07-02T10:56:43.999Z,27.96
2018-07-02T10:57:44.019Z,27.82
2018-07-02T10:58:43.976Z,27.92
2018-07-02T10:59:44.013Z,27.94
2018-07-02T11:00:43.959Z,27.94
2018-07-02T11:01:43.947Z,27.97
2018-07-02T11:02:43.949Z,27.99
2018-07-02T11:03:43.968Z,27.92
2018-07-02T11:04:44.871Z,27.99
2018-07-02T11:05:43.896Z,28.00
2018-07-02T11:06:43.929Z,28.04
2018-07-02T11:07:43.876Z,27.93
2018-07-02T11:08:43.874Z,27.96
2018-07-02T11:09:43.915Z,28.02
2018-07-02T11:10:43.845Z,28.06
2018-07-02T11:11:43.931Z,27.99
2018-07-02T11:12:43.832Z,27.99
2018-07-02T11:13:43.955Z,28.03
2018-07-02T11:14:43.823Z,28.06
2018-07-02T11:15:43.786Z,28.02
2018-07-02T11:16:43.774Z,28.09
2018-07-02T11:17:43.767Z,28.07
2018-07-02T11:18:43.756Z,28.04
2018-07-02T11:19:43.745Z,28.06
2018-07-02T11:20:43.812Z,28.11
2018-07-02T11:21:43.728Z,28.09
2018-07-02T11:22:43.712Z,28.07
2018-07-02T11:23:43.744Z,28.19
2018-07-02T11:24:43.687Z,28.14
2018-07-02T11:25:43.683Z,28.09
2018-07-02T11:26:43.706Z,28.12
2018-07-02T11:27:43.700Z,28.09
2018-07-02T11:28:43.645Z,28.15
2018-07-02T11:29:43.634Z,28.15
2018-07-02T11:30:43.629Z,28.15
2018-07-02T11:31:43.618Z,28.15
2018-07-02T11:32:43.636Z,28.19
2018-07-02T11:33:43.591Z,28.19
2018-07-02T11:34:43.622Z,28.19
2018-07-02T11:35:43.569Z,28.21
2018-07-02T11:36:43.559Z,28.29
2018-07-02T11:37:43.548Z,28.25
2018-07-02T11:38:43.566Z,28.25
2018-07-02T11:39:43.528Z,28.24
2018-07-02T11:40:43.521Z,28.25
2018-07-02T11:41:43.552Z,28.30
2018-07-02T11:42:43.496Z,28.31
2018-07-02T11:43:43.491Z,28.24
2018-07-02T11:44:43.500Z,28.31
2018-07-02T11:45:43.464Z,28.30
2018-07-02T11:46:48.385Z,28.27
2018-07-02T11:47:43.446Z,28.25
2018-07-02T11:48:43.478Z,28.25
2018-07-02T11:49:43.437Z,28.31
2018-07-02T11:50:43.446Z,28.31
2018-07-02T11:51:43.410Z,28.33
2018-07-02T11:52:43.392Z,28.30
2018-07-02T11:53:43.383Z,28.36
2018-07-02T11:54:43.370Z,28.37
2018-07-02T11:55:43.394Z,28.33
2018-07-02T11:56:43.382Z,28.34
2018-07-02T11:57:43.337Z,28.37
2018-07-02T11:58:43.323Z,28.34
2018-07-02T11:59:43.321Z,28.36
2018-07-02T12:00:43.303Z,28.41
2018-07-02T12:01:43.296Z,28.30
2018-07-02T12:02:43.363Z,28.40
2018-07-02T12:03:43.272Z,28.37
2018-07-02T12:04:43.261Z,28.41
2018-07-02T12:05:43.251Z,28.34
2018-07-02T12:06:43.240Z,28.39
2018-07-02T12:07:43.230Z,28.39
2018-07-02T12:08:43.257Z,28.33
2018-07-02T12:09:43.243Z,28.36
2018-07-02T12:10:43.198Z,28.36
2018-07-02T12:11:43.187Z,28.30
2018-07-02T12:12:43.177Z,28.37
2018-07-02T12:13:43.166Z,28.33
2018-07-02T12:14:43.194Z,28.33
2018-07-02T12:15:43.144Z,28.33
2018-07-02T12:16:43.171Z,28.36
2018-07-02T12:17:43.127Z,28.40
2018-07-02T12:18:43.111Z,28.39
2018-07-02T12:19:43.106Z,28.37
2018-07-02T12:20:43.121Z,28.41
2018-07-02T12:21:43.084Z,28.39
2018-07-02T12:22:43.091Z,28.40
2018-07-02T12:23:43.098Z,28.41
2018-07-02T12:24:43.049Z,28.46
2018-07-02T12:25:43.041Z,28.36
2018-07-02T12:26:43.065Z,28.46
2018-07-02T12:27:43.016Z,28.39
2018-07-02T12:28:43.013Z,28.41
2018-07-02T12:29:43.000Z,28.44
2018-07-02T12:30:43.025Z,28.51
2018-07-02T12:31:42.973Z,28.48
2018-07-02T12:32:43.004Z,28.46
2018-07-02T12:33:42.954Z,28.40
2018-07-02T12:34:42.941Z,28.46
2018-07-02T12:35:42.933Z,28.46
2018-07-02T12:36:42.919Z,28.52
2018-07-02T12:37:42.980Z,28.55
2018-07-02T12:38:42.899Z,28.43
2018-07-02T12:39:42.890Z,28.52
2018-07-02T12:40:42.877Z,28.49
2018-07-02T12:41:42.867Z,28.46
2018-07-02T12:42:42.856Z,28.48
2018-07-02T12:43:42.882Z,28.43
2018-07-02T12:44:42.878Z,28.48
2018-07-02T12:45:42.828Z,28.59
2018-07-02T12:46:42.858Z,28.49
2018-07-02T12:47:47.717Z,28.49
2018-07-02T12:48:42.791Z,28.56
2018-07-02T12:49:42.823Z,28.61
2018-07-02T12:50:42.773Z,28.51
2018-07-02T12:51:42.808Z,28.64
2018-07-02T12:52:42.749Z,28.52
2018-07-02T12:53:42.741Z,28.59
2018-07-02T12:54:43.058Z,28.48
2018-07-02T12:55:42.806Z,28.51
2018-07-02T12:56:42.708Z,28.58
2018-07-02T12:57:42.695Z,28.54
2018-07-02T12:58:42.874Z,28.55
2018-07-02T12:59:42.674Z,28.58
2018-07-02T13:00:42.674Z,28.54
2018-07-02T13:01:42.678Z,28.51
2018-07-02T13:02:42.649Z,28.44
2018-07-02T13:03:42.632Z,28.54
2018-07-02T13:04:42.625Z,28.54
2018-07-02T13:05:42.652Z,28.55
2018-07-02T13:06:42.601Z,28.46
2018-07-02T13:07:42.627Z,28.54
2018-07-02T13:08:42.576Z,28.54
2018-07-02T13:09:42.569Z,28.56
2018-07-02T13:10:42.560Z,28.66
2018-07-02T13:11:42.545Z,28.56
2018-07-02T13:12:42.582Z,28.58
2018-07-02T13:13:42.557Z,28.56
2018-07-02T13:14:42.514Z,28.59
2018-07-02T13:15:42.502Z,28.56
2018-07-02T13:16:42.491Z,28.61
2018-07-02T13:17:42.482Z,28.59
2018-07-02T13:18:42.473Z,28.59
2018-07-02T13:19:42.537Z,28.56
2018-07-02T13:20:42.461Z,28.56
2018-07-02T13:21:42.441Z,28.55
2018-07-02T13:22:42.439Z,28.62
2018-07-02T13:23:42.417Z,28.62
2018-07-02T13:24:42.434Z,28.62
2018-07-02T13:25:42.395Z,28.66
2018-07-02T13:26:42.425Z,28.55
2018-07-02T13:27:42.379Z,28.59
2018-07-02T13:28:42.363Z,28.59
2018-07-02T13:29:42.389Z,28.66
2018-07-02T13:30:42.582Z,28.64
2018-07-02T13:31:42.331Z,28.62
2018-07-02T13:32:42.320Z,28.66
2018-07-02T13:33:42.354Z,28.62
2018-07-02T13:34:42.302Z,28.61
2018-07-02T13:35:42.292Z,28.64
2018-07-02T13:36:42.385Z,28.58
2018-07-02T13:37:42.379Z,28.64
2018-07-02T13:38:42.261Z,28.67
2018-07-02T13:39:42.297Z,28.61
2018-07-02T13:40:42.413Z,28.64
2018-07-02T13:41:42.278Z,28.64
2018-07-02T13:42:42.242Z,28.64
2018-07-02T13:43:42.209Z,28.64
2018-07-02T13:44:42.192Z,28.62
2018-07-02T13:45:42.184Z,28.67
2018-07-02T13:46:42.178Z,28.64
2018-07-02T13:47:42.222Z,28.67
2018-07-02T13:48:47.115Z,28.71
2018-07-02T13:49:42.145Z,28.70
2018-07-02T13:50:42.130Z,28.71
2018-07-02T13:51:42.120Z,28.67
2018-07-02T13:52:42.106Z,28.68
2018-07-02T13:53:42.099Z,28.66
2018-07-02T13:54:42.158Z,28.67
2018-07-02T13:55:42.083Z,28.67
2018-07-02T13:56:42.105Z,28.64
2018-07-02T13:57:42.074Z,28.70
2018-07-02T13:58:42.051Z,28.68
2018-07-02T13:59:42.039Z,28.67
2018-07-02T14:00:42.128Z,28.68
2018-07-02T14:01:42.054Z,28.76
2018-07-02T14:02:42.008Z,28.71
2018-07-02T14:03:41.990Z,28.62
2018-07-02T14:04:41.988Z,28.68
2018-07-02T14:10:29.050Z,28.76
2018-07-02T14:11:07.932Z,28.78
2018-07-02T14:12:07.963Z,28.76
2018-07-02T14:13:07.910Z,28.77
2018-07-02T14:14:07.992Z,28.80
2018-07-02T14:15:07.892Z,28.81
2018-07-02T14:16:07.923Z,28.76
2018-07-02T14:17:07.948Z,28.78
2018-07-02T14:18:07.864Z,28.85
2018-07-02T14:19:07.846Z,28.83
2018-07-02T14:20:07.852Z,28.81
2018-07-02T14:21:07.835Z,28.86
2018-07-02T14:22:07.847Z,28.89
2018-07-02T14:23:07.808Z,28.85
2018-07-02T14:24:07.820Z,28.92
2018-07-02T14:25:07.800Z,28.88
2018-07-02T14:26:07.772Z,28.92
2018-07-02T14:27:07.778Z,28.86
2018-07-02T14:28:07.790Z,28.92
2018-07-02T14:29:07.753Z,28.86
2018-07-02T14:30:07.738Z,28.95
2018-07-02T14:31:07.754Z,28.89
2018-07-02T14:32:07.739Z,28.93
2018-07-02T14:33:07.732Z,28.92
2018-07-02T14:34:07.712Z,28.88
2018-07-02T14:35:07.686Z,28.88
2018-07-02T14:36:07.677Z,28.89
2018-07-02T14:37:07.658Z,28.89
2018-07-02T14:38:07.682Z,28.93
2018-07-02T14:39:07.696Z,28.88
2018-07-02T14:40:07.658Z,28.93
2018-07-02T14:41:07.644Z,28.89
2018-07-02T14:42:07.622Z,28.96
2018-07-02T14:43:07.604Z,28.88
2018-07-02T14:44:07.584Z,28.96
2018-07-02T14:45:07.811Z,28.88
2018-07-02T14:46:07.621Z,28.89
2018-07-02T14:47:07.555Z,28.92
2018-07-02T14:48:07.565Z,28.93
2018-07-02T14:49:12.602Z,28.86
2018-07-02T14:50:08.530Z,28.90
2018-07-02T14:51:07.513Z,28.92
2018-07-02T14:52:07.553Z,28.93
2018-07-02T14:53:07.507Z,29.00
2018-07-02T14:54:07.509Z,28.90
2018-07-02T14:55:07.470Z,28.90
2018-07-02T14:56:07.459Z,28.92
2018-07-02T14:57:07.446Z,29.00
2018-07-02T14:58:07.464Z,28.93
2018-07-02T14:59:07.456Z,29.00
2018-07-02T15:00:07.488Z,29.02
2018-07-02T15:01:07.423Z,29.06
2018-07-02T15:02:07.417Z,29.05
2018-07-02T15:03:07.389Z,29.02
2018-07-02T15:04:07.430Z,29.02
2018-07-02T15:05:07.368Z,29.12
2018-07-02T15:06:07.392Z,29.11
2018-07-02T15:07:07.355Z,29.00
2018-07-02T15:08:07.331Z,29.08
2018-07-02T15:09:07.327Z,29.05
2018-07-02T15:10:07.343Z,29.08
2018-07-02T15:11:07.311Z,29.05
2018-07-02T15:12:07.288Z,29.05
2018-07-02T15:13:07.318Z,29.05
2018-07-02T15:14:07.305Z,29.12
2018-07-02T15:15:07.269Z,29.06
2018-07-02T15:16:07.269Z,29.14
2018-07-02T15:17:07.242Z,29.09
2018-07-02T15:18:07.231Z,29.15
2018-07-02T15:19:07.214Z,29.15
2018-07-02T15:20:07.237Z,29.21
2018-07-02T15:21:07.217Z,29.23
2018-07-02T15:22:07.219Z,29.21
2018-07-02T15:23:07.179Z,29.21
2018-07-02T15:24:07.171Z,29.24
2018-07-02T15:25:07.157Z,29.19
2018-07-02T15:26:07.139Z,29.16
2018-07-02T15:27:07.159Z,29.21
2018-07-02T15:28:07.166Z,29.19
2018-07-02T15:29:07.127Z,29.24
2018-07-02T15:30:07.114Z,29.28
2018-07-02T15:31:07.085Z,29.30
2018-07-02T15:32:07.073Z,29.34
2018-07-02T15:33:07.068Z,29.36
2018-07-02T15:34:07.123Z,29.30
2018-07-02T15:35:07.066Z,29.41
2018-07-02T15:36:07.032Z,29.45
2018-07-02T15:37:07.029Z,29.45
2018-07-02T15:38:07.014Z,29.45
2018-07-02T15:39:07.010Z,29.43
2018-07-02T15:40:07.034Z,29.49
2018-07-02T15:41:06.999Z,29.46
2018-07-02T15:42:07.021Z,29.61
2018-07-02T15:43:06.957Z,29.60
2018-07-02T15:44:06.948Z,29.57
2018-07-02T15:45:06.944Z,29.58
2018-07-02T15:46:06.952Z,29.65
2018-07-02T15:47:06.958Z,29.65
2018-07-02T15:48:06.932Z,29.61
2018-07-02T15:49:06.916Z,29.71
2018-07-02T15:50:11.794Z,29.63
2018-07-02T15:51:06.871Z,29.68
2018-07-02T15:52:06.888Z,29.67
2018-07-02T15:53:06.874Z,29.76
2018-07-02T15:54:06.839Z,29.78
2018-07-02T15:55:06.857Z,29.78
2018-07-02T15:56:06.837Z,29.79
2018-07-02T15:57:06.810Z,29.89
2018-07-02T15:58:06.825Z,29.82
2018-07-02T15:59:06.790Z,29.92
2018-07-02T16:00:06.794Z,29.87
2018-07-02T16:01:06.767Z,29.89
2018-07-02T16:02:06.789Z,29.87
2018-07-02T16:03:06.776Z,29.92
2018-07-02T16:04:06.762Z,29.98
2018-07-02T16:05:06.774Z,29.87
2018-07-02T16:06:06.730Z,29.94
2018-07-02T16:07:06.722Z,30.01
2018-07-02T16:08:06.718Z,30.02
2018-07-02T16:09:06.759Z,30.01
2018-07-02T16:10:06.839Z,30.04
2018-07-02T16:11:06.703Z,30.10
2018-07-02T16:12:06.676Z,30.01
2018-07-02T16:13:06.672Z,30.05
2018-07-02T16:14:06.647Z,30.00
2018-07-02T16:15:06.690Z,30.15
2018-07-02T16:16:06.696Z,30.13
2018-07-02T16:17:06.738Z,30.13
2018-07-02T16:18:06.621Z,30.10
2018-07-02T16:19:06.617Z,30.15
2018-07-02T16:20:06.609Z,30.19
2018-07-02T16:21:06.580Z,30.27
2018-07-02T16:22:06.668Z,30.22
2018-07-02T16:23:06.592Z,30.24
2018-07-02T16:24:06.600Z,30.24
2018-07-02T16:25:06.521Z,30.26
2018-07-02T16:26:06.548Z,30.24
2018-07-02T16:27:06.503Z,30.34
2018-07-02T16:28:06.517Z,30.31
2018-07-02T16:29:06.575Z,30.26
2018-07-02T16:30:06.498Z,30.34
2018-07-02T16:31:06.518Z,30.42
2018-07-02T16:32:06.468Z,30.39
2018-07-02T16:33:06.479Z,30.43
2018-07-02T16:34:06.551Z,30.42
2018-07-02T16:35:06.447Z,30.45
2018-07-02T16:36:06.420Z,30.47
2018-07-02T16:37:06.523Z,30.55
2018-07-02T16:38:06.443Z,30.57
2018-07-02T16:39:06.394Z,30.53
2018-07-02T16:40:06.422Z,30.55
2018-07-02T16:41:06.650Z,30.57
2018-07-02T16:42:06.371Z,30.61
2018-07-02T16:43:06.362Z,30.60
2018-07-02T16:44:06.394Z,30.61
2018-07-02T16:45:06.355Z,30.64
2018-07-02T16:46:06.403Z,30.65
2018-07-02T16:47:06.309Z,30.62
2018-07-02T16:48:06.331Z,30.58
2018-07-02T16:49:06.280Z,30.75
2018-07-02T16:50:06.286Z,30.76
2018-07-02T16:51:11.264Z,30.72
2018-07-02T16:52:07.311Z,30.80
2018-07-02T16:53:06.241Z,30.76
2018-07-02T16:54:06.291Z,30.75
2018-07-02T16:55:06.232Z,30.79
2018-07-02T16:56:06.221Z,30.73
2018-07-02T16:57:06.206Z,30.79
2018-07-02T16:58:06.317Z,30.82
2018-07-02T16:59:06.267Z,30.83
2018-07-02T17:00:06.181Z,30.82
2018-07-02T17:01:06.187Z,30.89
2018-07-02T17:02:06.181Z,30.94
2018-07-02T17:03:06.133Z,30.95
2018-07-02T17:04:06.169Z,30.98
2018-07-02T17:05:06.165Z,31.01
2018-07-02T17:06:06.162Z,30.97
2018-07-02T17:07:06.147Z,31.10
2018-07-02T17:08:06.123Z,31.02
2018-07-02T17:09:37.731Z,31.07
2018-07-02T17:10:06.051Z,31.02
2018-07-02T17:12:07.084Z,31.09
2018-07-02T17:13:06.019Z,31.17
2018-07-02T17:14:06.007Z,31.19
2018-07-02T17:15:06.034Z,31.17
2018-07-02T17:16:05.986Z,31.16
2018-07-02T17:17:05.977Z,31.29
2018-07-02T17:18:05.964Z,31.32
2018-07-02T17:19:05.991Z,31.26
2018-07-02T17:20:05.949Z,31.41
2018-07-02T17:21:05.955Z,31.34
2018-07-02T17:22:05.923Z,31.38
2018-07-02T17:23:05.914Z,31.43
2018-07-02T17:24:05.904Z,31.47
2018-07-02T17:25:05.892Z,31.50
2018-07-02T17:26:05.931Z,31.47
2018-07-02T17:27:05.896Z,31.51
2018-07-02T17:28:05.867Z,31.46
2018-07-02T17:29:05.851Z,31.56
2018-07-02T17:30:06.757Z,31.53
2018-07-02T17:31:05.832Z,31.53
2018-07-02T17:32:05.822Z,31.58
2018-07-02T17:33:05.868Z,31.63
2018-07-02T17:34:05.801Z,31.65
2018-07-02T17:35:05.815Z,31.63
2018-07-02T17:36:05.784Z,31.62
2018-07-02T17:37:05.771Z,31.69
2018-07-02T17:38:05.760Z,31.70
2018-07-02T17:39:05.781Z,31.75
2018-07-02T17:40:05.800Z,31.78
2018-07-02T17:41:05.727Z,31.73
2018-07-02T17:42:05.719Z,31.78
2018-07-02T17:43:05.707Z,31.78
2018-07-02T17:44:05.702Z,31.95
2018-07-02T17:45:05.711Z,31.85
2018-07-02T17:46:05.680Z,31.88
2018-07-02T17:47:05.706Z,31.85
2018-07-02T17:48:05.659Z,31.95
2018-07-02T17:49:05.654Z,31.86
2018-07-02T17:50:05.641Z,32.00
2018-07-02T17:51:05.676Z,32.04
2018-07-02T17:52:05.619Z,32.08
2018-07-02T17:53:10.806Z,32.10
2018-07-02T17:54:06.633Z,32.13
2018-07-02T17:55:05.589Z,32.21
2018-07-02T17:56:05.583Z,32.28
2018-07-02T17:57:05.601Z,32.28
2018-07-02T17:58:05.556Z,32.21
2018-07-02T17:59:05.546Z,32.26
2018-07-02T18:00:05.540Z,32.38
2018-07-02T18:01:05.566Z,32.40
2018-07-02T18:02:05.523Z,32.48
2018-07-02T18:03:05.540Z,32.50
2018-07-02T18:04:05.493Z,32.55
2018-07-02T18:05:05.486Z,32.51
2018-07-02T18:06:05.477Z,32.57
2018-07-02T18:07:05.465Z,32.56
2018-07-02T18:08:05.486Z,32.59
2018-07-02T18:09:05.481Z,32.65
2018-07-02T18:10:05.431Z,32.75
2018-07-02T18:11:05.425Z,32.74
2018-07-02T18:12:05.411Z,32.70
2018-07-02T18:13:05.402Z,32.72
2018-07-02T18:14:05.460Z,32.72
2018-07-02T18:15:05.456Z,32.84
2018-07-02T18:16:05.373Z,32.89
2018-07-02T18:17:05.359Z,32.85
2018-07-02T18:18:05.348Z,32.84
2018-07-02T18:19:05.340Z,32.87
2018-07-02T18:20:05.332Z,32.92
2018-07-02T18:21:05.341Z,32.94
2018-07-02T18:22:05.346Z,32.96
2018-07-02T18:23:05.302Z,32.97
2018-07-02T18:24:05.289Z,32.94
2018-07-02T18:25:05.276Z,33.00
2018-07-02T18:26:05.273Z,32.97
2018-07-02T18:27:05.302Z,32.89
2018-07-02T18:28:05.248Z,32.94
2018-07-02T18:29:05.274Z,32.96
2018-07-02T18:30:05.227Z,33.04
2018-07-02T18:31:05.212Z,33.01
2018-07-02T18:32:05.212Z,33.01
2018-07-02T18:33:05.217Z,33.04
2018-07-02T18:34:05.188Z,33.03
2018-07-02T18:35:05.176Z,33.04
2018-07-02T18:36:05.201Z,33.04
2018-07-02T18:37:05.159Z,33.01
2018-07-02T18:38:05.179Z,33.04
2018-07-02T18:39:05.131Z,33.06
2018-07-02T18:40:05.126Z,33.07
2018-07-02T18:41:05.111Z,32.99
2018-07-02T18:42:05.103Z,32.97
2018-07-02T18:43:05.171Z,33.03
2018-07-02T18:44:05.105Z,33.03
2018-07-02T18:45:05.079Z,33.01
2018-07-02T18:46:05.067Z,33.01
2018-07-02T18:47:05.053Z,32.94
2018-07-02T18:48:05.041Z,32.89
2018-07-02T18:49:05.087Z,32.99
2018-07-02T18:50:05.097Z,32.94
2018-07-02T18:51:05.020Z,32.84
2018-07-02T18:52:05.000Z,32.88
2018-07-02T18:53:04.995Z,32.79
2018-07-02T18:54:09.902Z,32.69
2018-07-02T18:55:04.967Z,32.66
2018-07-02T18:56:04.994Z,32.63
2018-07-02T18:57:05.057Z,32.57
2018-07-02T18:58:04.937Z,32.56
2018-07-02T18:59:04.926Z,32.52
2018-07-02T19:00:04.918Z,32.48
2018-07-02T19:01:04.908Z,32.44
2018-07-02T19:02:04.937Z,32.41
2018-07-02T19:03:04.883Z,32.45
2018-07-02T19:04:04.920Z,32.44
2018-07-02T19:05:04.865Z,32.40
2018-07-02T19:06:04.857Z,32.45
2018-07-02T19:07:04.847Z,32.45
2018-07-02T19:08:04.856Z,32.37
2018-07-02T19:09:04.827Z,32.41
2018-07-02T19:10:04.815Z,32.38
2018-07-02T19:11:04.847Z,32.30
2018-07-02T19:12:04.793Z,32.29
2018-07-02T19:13:04.789Z,32.19
2018-07-02T19:14:04.818Z,32.11
2018-07-02T19:15:04.761Z,32.01
2018-07-02T19:16:04.760Z,31.96
2018-07-02T19:17:04.742Z,31.89
2018-07-02T19:18:04.771Z,31.91
2018-07-02T19:19:04.723Z,31.88
2018-07-02T19:20:04.755Z,31.78
2018-07-02T19:21:04.705Z,31.73
2018-07-02T19:22:04.691Z,31.62
2018-07-02T19:23:04.683Z,31.66
2018-07-02T19:24:04.669Z,31.62
2018-07-02T19:25:04.750Z,31.57
2018-07-02T19:26:04.649Z,31.44
2018-07-02T19:27:04.641Z,31.47
2018-07-02T19:28:04.632Z,31.44
2018-07-02T19:29:04.621Z,31.46
2018-07-02T19:30:04.937Z,31.38
2018-07-02T19:31:04.640Z,31.32
2018-07-02T19:32:04.684Z,31.28
2018-07-02T19:33:04.579Z,31.21
2018-07-02T19:34:04.589Z,31.13
2018-07-02T19:35:04.560Z,31.16
2018-07-02T19:36:04.873Z,31.10
2018-07-02T19:37:04.558Z,31.10
2018-07-02T19:38:04.540Z,31.07
2018-07-02T19:39:04.552Z,31.02
2018-07-02T19:40:04.508Z,31.06
2018-07-02T19:41:04.546Z,31.04
2018-07-02T19:42:04.486Z,30.84
2018-07-02T19:43:04.501Z,30.92
2018-07-02T19:44:04.468Z,30.84
2018-07-02T19:45:04.456Z,30.84
2018-07-02T19:46:04.491Z,30.80
2018-07-02T19:47:04.436Z,30.79
2018-07-02T19:48:04.423Z,30.82
2018-07-02T19:49:04.449Z,30.75
2018-07-02T19:50:04.407Z,30.69
2018-07-02T19:51:04.395Z,30.64
2018-07-02T19:52:04.382Z,30.69
2018-07-02T19:53:04.411Z,30.69
2018-07-02T19:54:04.364Z,30.58
2018-07-02T19:55:09.309Z,30.55
2018-07-02T19:56:05.346Z,30.53
2018-07-02T19:57:04.331Z,30.53
2018-07-02T19:58:04.324Z,30.46
2018-07-02T19:59:04.310Z,30.45
2018-07-02T20:00:04.359Z,30.39
2018-07-02T20:01:04.440Z,30.43
2018-07-02T20:02:04.288Z,30.34
2018-07-02T20:03:04.272Z,30.42
2018-07-02T20:04:04.262Z,30.37
2018-07-02T20:05:04.249Z,30.39
2018-07-02T20:06:04.243Z,30.31
2018-07-02T20:07:04.366Z,30.24
2018-07-02T20:08:04.217Z,30.27
2018-07-02T20:09:04.209Z,30.23
2018-07-02T20:10:04.196Z,30.27
2018-07-02T20:11:04.187Z,30.20
2018-07-02T20:12:04.195Z,30.10
2018-07-02T20:13:04.194Z,30.13
2018-07-02T20:14:04.195Z,30.11
2018-07-02T20:15:04.142Z,30.10
2018-07-02T20:16:04.132Z,30.11
2018-07-02T20:17:04.121Z,30.04
2018-07-02T20:18:04.114Z,30.07
2018-07-02T20:19:04.172Z,29.97
2018-07-02T20:20:04.090Z,29.97
2018-07-02T20:21:04.124Z,29.90
2018-07-02T20:22:04.074Z,29.94
2018-07-02T20:23:04.062Z,29.89
2018-07-02T20:24:04.051Z,29.78
2018-07-02T20:25:04.084Z,29.80
2018-07-02T20:26:04.029Z,29.80
2018-07-02T20:27:04.082Z,29.80
2018-07-02T20:28:04.056Z,29.76
2018-07-02T20:29:04.000Z,29.70
2018-07-02T20:30:04.029Z,29.74
2018-07-02T20:31:03.979Z,29.73
2018-07-02T20:32:03.973Z,29.67
2018-07-02T20:33:03.960Z,29.65
2018-07-02T20:34:03.951Z,29.68
2018-07-02T20:35:03.979Z,29.58
2018-07-02T20:36:03.962Z,29.65
2018-07-02T20:37:03.920Z,29.58
2018-07-02T20:38:03.911Z,29.55
2018-07-02T20:39:03.898Z,29.55
2018-07-02T20:40:03.894Z,29.43
2018-07-02T20:41:03.878Z,29.43
2018-07-02T20:42:03.928Z,29.51
2018-07-02T20:43:03.856Z,29.51
2018-07-02T20:44:03.844Z,29.48
2018-07-02T20:45:03.837Z,29.42
2018-07-02T20:46:03.822Z,29.42
2018-07-02T20:47:03.817Z,29.43
2018-07-02T20:48:03.823Z,29.39
2018-07-02T20:49:03.852Z,29.39
2018-07-02T20:50:03.781Z,29.31
2018-07-02T20:51:03.768Z,29.34
2018-07-02T20:52:03.761Z,29.33
2018-07-02T20:53:03.752Z,29.39
2018-07-02T20:54:03.753Z,29.33
2018-07-02T20:55:03.732Z,29.34
2018-07-02T20:56:08.704Z,29.31
2018-07-02T20:57:03.769Z,29.27
2018-07-02T20:58:03.698Z,29.27
2018-07-02T20:59:03.687Z,29.27
2018-07-02T21:00:03.718Z,29.21
2018-07-02T21:01:03.666Z,29.23
2018-07-02T21:02:03.654Z,29.19
2018-07-02T21:03:03.684Z,29.23
2018-07-02T21:04:03.632Z,29.19
2018-07-02T21:05:03.628Z,29.15
2018-07-02T21:06:03.635Z,29.12
2018-07-02T21:07:03.603Z,29.19
2018-07-02T21:08:03.594Z,29.12
2018-07-02T21:09:03.581Z,29.06
2018-07-02T21:10:03.631Z,29.00
2018-07-02T21:11:03.558Z,29.05
2018-07-02T21:12:03.572Z,29.08
2018-07-02T21:13:03.539Z,29.09
2018-07-02T21:14:03.525Z,28.98
2018-07-02T21:15:03.517Z,29.04
2018-07-02T21:16:03.545Z,28.95
2018-07-02T21:17:03.550Z,28.93
2018-07-02T21:18:03.509Z,28.93
2018-07-02T21:19:03.476Z,28.93
2018-07-02T21:20:03.464Z,28.95
2018-07-02T21:21:03.459Z,28.88
2018-07-02T21:22:03.445Z,28.83
2018-07-02T21:23:03.434Z,28.95
2018-07-02T21:24:03.486Z,28.92
2018-07-02T21:25:03.411Z,28.90
2018-07-02T21:26:03.402Z,28.83
2018-07-02T21:27:03.717Z,28.85
2018-07-02T21:28:03.379Z,28.80
2018-07-02T21:29:03.370Z,28.78
2018-07-02T21:30:03.388Z,28.71
2018-07-02T21:31:03.391Z,28.71
2018-07-02T21:32:03.336Z,28.81
2018-07-02T21:33:03.329Z,28.80
2018-07-02T21:34:03.333Z,28.73
2018-07-02T21:35:03.331Z,28.80
2018-07-02T21:36:03.298Z,28.73
2018-07-02T21:37:03.288Z,28.76
2018-07-02T21:38:03.307Z,28.67
2018-07-02T21:39:03.267Z,28.64
2018-07-02T21:40:03.253Z,28.67
2018-07-02T21:41:03.284Z,28.64
2018-07-02T21:42:03.240Z,28.62
2018-07-02T21:43:03.222Z,28.70
2018-07-02T21:44:03.214Z,28.61
2018-07-02T21:45:03.242Z,28.62
2018-07-02T21:46:03.189Z,28.58
2018-07-02T21:47:03.221Z,28.56
2018-07-02T21:48:03.172Z,28.54
2018-07-02T21:49:03.163Z,28.49
2018-07-02T21:50:03.152Z,28.48
2018-07-02T21:51:03.138Z,28.56
2018-07-02T21:52:03.210Z,28.58
2018-07-02T21:53:03.138Z,28.52
2018-07-02T21:54:03.109Z,28.44
2018-07-02T21:55:03.100Z,28.55
2018-07-02T21:56:03.095Z,28.51
2018-07-02T21:57:03.077Z,28.44
2018-07-02T21:58:07.947Z,28.46
2018-07-02T21:59:03.141Z,28.52
2018-07-02T22:00:03.057Z,28.49
2018-07-02T22:01:03.037Z,28.49
2018-07-02T22:02:03.029Z,28.40
2018-07-02T22:03:03.014Z,28.40
2018-07-02T22:04:03.007Z,28.39
2018-07-02T22:05:03.016Z,28.39
2018-07-02T22:06:03.015Z,28.34
2018-07-02T22:07:02.976Z,28.39
2018-07-02T22:08:02.958Z,28.37
2018-07-02T22:09:02.953Z,28.33
2018-07-02T22:10:02.940Z,28.33
2018-07-02T22:11:03.018Z,28.34
2018-07-02T22:12:02.920Z,28.34
2018-07-02T22:13:02.946Z,28.30
2018-07-02T22:14:02.898Z,28.29
2018-07-02T22:15:02.884Z,28.29
2018-07-02T22:16:02.877Z,28.27
2018-07-02T22:17:02.883Z,28.27
2018-07-02T22:18:02.863Z,28.34
2018-07-02T22:19:02.844Z,28.27
2018-07-02T22:20:02.894Z,28.24
2018-07-02T22:21:02.854Z,28.25
2018-07-02T22:22:02.858Z,28.25
2018-07-02T22:23:02.799Z,28.21
2018-07-02T22:24:02.792Z,28.21
2018-07-02T22:25:02.777Z,28.22
2018-07-02T22:26:02.769Z,28.25
2018-07-02T22:27:02.790Z,28.17
2018-07-02T22:28:02.780Z,28.18
2018-07-02T22:29:02.741Z,28.17
2018-07-02T22:30:02.727Z,28.15
2018-07-02T22:31:02.713Z,28.18
2018-07-02T22:32:02.707Z,28.11
2018-07-02T22:33:02.697Z,28.06
2018-07-02T22:34:02.756Z,28.11
2018-07-02T22:35:02.674Z,28.18
2018-07-02T22:36:02.667Z,28.15
2018-07-02T22:37:02.656Z,28.09
2018-07-02T22:38:02.643Z,28.09
2018-07-02T22:39:02.636Z,28.11
2018-07-02T22:40:02.645Z,28.09
2018-07-02T22:41:02.665Z,28.07
2018-07-02T22:42:02.605Z,28.02
2018-07-02T22:43:02.596Z,28.04
2018-07-02T22:44:02.582Z,28.04
2018-07-02T22:45:02.574Z,28.00
2018-07-02T22:46:02.602Z,28.00
2018-07-02T22:47:02.549Z,28.04
2018-07-02T22:48:02.582Z,28.04
2018-07-02T22:49:02.532Z,28.06
2018-07-02T22:50:02.520Z,28.03
2018-07-02T22:51:02.513Z,28.03
2018-07-02T22:52:02.522Z,28.03
2018-07-02T22:53:02.494Z,28.02
2018-07-02T22:54:02.479Z,28.02
2018-07-02T22:55:02.540Z,27.87
2018-07-02T22:56:02.473Z,28.04
2018-07-02T22:57:02.521Z,27.99
2018-07-02T22:58:02.460Z,28.02
2018-07-02T22:59:07.350Z,27.99
2018-07-02T23:00:02.434Z,28.00
2018-07-02T23:01:02.419Z,27.94
2018-07-02T23:02:02.444Z,27.82
2018-07-02T23:03:02.393Z,27.94
2018-07-02T23:04:02.401Z,27.94
2018-07-02T23:05:02.366Z,27.93
2018-07-02T23:06:02.362Z,27.79
2018-07-02T23:07:02.347Z,27.84
2018-07-02T23:08:02.338Z,27.81
2018-07-02T23:09:02.364Z,27.84
2018-07-02T23:10:02.354Z,27.88
2018-07-02T23:11:02.307Z,27.78
2018-07-02T23:12:02.299Z,27.87
2018-07-02T23:13:02.286Z,27.79
2018-07-02T23:14:02.277Z,27.82
2018-07-02T23:15:02.267Z,27.84
2018-07-02T23:16:02.316Z,27.81
2018-07-02T23:17:02.246Z,27.78
2018-07-02T23:18:02.237Z,27.75
2018-07-02T23:19:02.232Z,27.81
2018-07-02T23:20:02.220Z,27.79
2018-07-02T23:21:02.205Z,27.69
2018-07-02T23:22:02.214Z,27.77
2018-07-02T23:23:02.228Z,27.77
2018-07-02T23:24:02.177Z,27.81
2018-07-02T23:25:02.164Z,27.69
2018-07-02T23:26:02.152Z,27.79
2018-07-02T23:27:02.145Z,27.72
2018-07-02T23:28:02.152Z,27.70
2018-07-02T23:29:02.128Z,27.72
2018-07-02T23:30:02.147Z,27.74
2018-07-02T23:31:02.104Z,27.77
2018-07-02T23:32:02.096Z,27.74
2018-07-02T23:33:02.094Z,27.84
2018-07-02T23:34:02.106Z,27.74
2018-07-02T23:35:02.061Z,27.79
2018-07-02T23:36:02.050Z,27.70
2018-07-02T23:37:02.081Z,27.74
2018-07-02T23:38:02.032Z,27.66
2018-07-02T23:39:02.020Z,27.67
2018-07-02T23:40:02.027Z,27.63
2018-07-02T23:41:02.002Z,27.67
2018-07-02T23:42:01.985Z,27.72
2018-07-02T23:43:01.978Z,27.67